Time;durP1;ratioP1;P1;durP2;ratioP2;P2;SDS_P1;SDS_P2;PMS_P1;PMS_P2;Temp;Humidity;BMP_temperature;BMP_pressure;BME280_temperature;BME280_humidity;BME280_pressure;Samples;Min_cycle;Max_cycle;Signal;HPM_P1;HPM_P2
2023/09/25 00:00:46;;;;;;;0.40;0.40;;;13.50;58.60;;;;;;5174047;27;20382;-67
2023/09/25 00:03:12;;;;;;;0.43;0.43;;;13.50;58.30;;;;;;5174427;27;20035;-67
2023/09/25 00:05:39;;;;;;;0.60;0.60;;;13.40;58.30;;;;;;5173969;27;20512;-67
2023/09/25 00:08:05;;;;;;;0.40;0.40;;;13.30;58.30;;;;;;5174124;27;20471;-68
2023/09/25 00:10:31;;;;;;;0.30;0.30;;;13.30;58.20;;;;;;5174462;27;20030;-66
2023/09/25 00:12:57;;;;;;;0.45;0.45;;;13.30;58.20;;;;;;5174044;27;20045;-67
2023/09/25 00:15:23;;;;;;;0.50;0.50;;;13.30;58.20;;;;;;5174029;27;20031;-67
2023/09/25 00:17:49;;;;;;;0.50;0.50;;;13.20;58.40;;;;;;5174313;27;20027;-67
2023/09/25 00:20:17;;;;;;;0.63;0.63;;;13.20;58.60;;;;;;5173913;27;20117;-68
2023/09/25 00:22:43;;;;;;;0.43;0.43;;;13.20;58.60;;;;;;5174082;27;20535;-67
2023/09/25 00:25:08;;;;;;;0.57;0.57;;;13.10;58.70;;;;;;5173913;27;20035;-67
2023/09/25 00:27:34;;;;;;;0.50;0.50;;;13.10;58.50;;;;;;5173894;27;20479;-69
2023/09/25 00:30:00;;;;;;;0.50;0.50;;;13.00;58.40;;;;;;5173960;27;20067;-68
2023/09/25 00:32:27;;;;;;;0.60;0.60;;;13.00;58.40;;;;;;5173937;27;20026;-67
2023/09/25 00:34:53;;;;;;;0.50;0.50;;;13.00;58.50;;;;;;5172458;27;20026;-68
2023/09/25 00:37:19;;;;;;;0.50;0.50;;;13.00;58.50;;;;;;5167913;27;20026;-65
2023/09/25 00:39:44;;;;;;;0.55;0.55;;;12.90;58.50;;;;;;5172263;27;20049;-67
2023/09/25 00:42:10;;;;;;;0.50;0.50;;;12.90;58.50;;;;;;5172172;27;20041;-66
2023/09/25 00:44:36;;;;;;;0.50;0.50;;;12.90;58.40;;;;;;5173616;27;20109;-67
2023/09/25 00:47:03;;;;;;;0.40;0.40;;;12.80;58.70;;;;;;5173557;27;20436;-66
2023/09/25 00:49:30;;;;;;;0.50;0.50;;;12.80;58.70;;;;;;5173608;27;20026;-67
2023/09/25 00:51:57;;;;;;;0.50;0.50;;;12.80;58.80;;;;;;5172991;27;20025;-66
2023/09/25 00:54:22;;;;;;;0.60;0.60;;;12.80;58.70;;;;;;5167795;27;20033;-67
2023/09/25 00:56:48;;;;;;;0.55;0.55;;;12.80;58.80;;;;;;5172935;27;20026;-66
2023/09/25 00:59:15;;;;;;;0.60;0.60;;;12.70;58.90;;;;;;5173879;27;20109;-66
2023/09/25 01:01:42;;;;;;;0.50;0.50;;;12.70;58.80;;;;;;5174342;27;20067;-67
2023/09/25 01:04:08;;;;;;;0.50;0.50;;;12.70;59.00;;;;;;5174793;27;20362;-67
2023/09/25 01:06:34;;;;;;;0.50;0.50;;;12.70;59.20;;;;;;5174499;27;20026;-67
2023/09/25 01:08:59;;;;;;;0.50;0.50;;;12.70;59.50;;;;;;5174565;27;20152;-67
2023/09/25 01:11:25;;;;;;;0.40;0.40;;;12.70;59.40;;;;;;5174156;27;20462;-68
2023/09/25 01:13:50;;;;;;;0.40;0.40;;;12.70;59.40;;;;;;5174057;27;20034;-68
2023/09/25 01:16:16;;;;;;;0.50;0.50;;;12.70;59.30;;;;;;5178094;27;20031;-68
2023/09/25 01:18:42;;;;;;;0.50;0.50;;;12.70;59.30;;;;;;5176777;27;20382;-68
2023/09/25 01:21:08;;;;;;;0.55;0.55;;;12.70;59.30;;;;;;5178308;27;20088;-68
2023/09/25 01:23:33;;;;;;;0.40;0.40;;;12.70;59.90;;;;;;5178169;27;20058;-68
2023/09/25 01:25:59;;;;;;;0.50;0.50;;;12.70;60.40;;;;;;5177821;27;20041;-68
2023/09/25 01:28:25;;;;;;;0.68;0.60;;;12.70;60.80;;;;;;5177980;27;20022;-68
2023/09/25 01:30:50;;;;;;;6.50;2.30;;;12.80;60.90;;;;;;5177630;27;20089;-68
2023/09/25 01:33:16;;;;;;;0.40;0.40;;;12.80;60.90;;;;;;5177784;27;20058;-68
2023/09/25 01:35:41;;;;;;;0.40;0.40;;;12.80;61.20;;;;;;5177801;27;20042;-68
2023/09/25 01:38:08;;;;;;;0.40;0.40;;;12.90;61.40;;;;;;5177174;27;20037;-68
2023/09/25 01:40:33;;;;;;;0.50;0.50;;;13.00;61.40;;;;;;5177476;27;20498;-68
2023/09/25 01:42:59;;;;;;;0.75;0.75;;;13.00;61.40;;;;;;5177088;27;20026;-67
2023/09/25 01:45:25;;;;;;;0.55;0.55;;;13.10;61.60;;;;;;5177106;27;20022;-68
2023/09/25 01:47:51;;;;;;;0.50;0.50;;;13.10;61.60;;;;;;5176757;27;20071;-66
2023/09/25 01:50:19;;;;;;;0.73;0.73;;;13.20;61.50;;;;;;5176965;27;20098;-66
2023/09/25 01:52:49;;;;;;;0.50;0.50;;;13.20;61.40;;;;;;5177106;27;20481;-66
2023/09/25 01:55:15;;;;;;;0.50;0.50;;;13.20;61.30;;;;;;5177223;27;20014;-66
2023/09/25 01:57:40;;;;;;;0.50;0.50;;;13.20;60.90;;;;;;5176929;27;20033;-66
2023/09/25 02:00:10;;;;;;;0.50;0.50;;;13.20;60.80;;;;;;5177068;27;20531;-66
2023/09/25 02:02:36;;;;;;;0.50;0.50;;;13.20;60.70;;;;;;5176726;27;20038;-67
2023/09/25 02:05:02;;;;;;;0.47;0.47;;;13.20;60.60;;;;;;5176418;27;20066;-67
2023/09/25 02:07:28;;;;;;;0.65;0.65;;;13.10;60.50;;;;;;5175260;27;20083;-67
2023/09/25 02:09:53;;;;;;;0.40;0.40;;;13.10;60.40;;;;;;5175084;27;20031;-67
2023/09/25 02:12:19;;;;;;;0.50;0.50;;;13.10;60.50;;;;;;5176285;27;20478;-67
2023/09/25 02:14:45;;;;;;;0.40;0.40;;;13.10;60.70;;;;;;5176824;27;20037;-67
2023/09/25 02:17:10;;;;;;;0.50;0.50;;;13.10;60.60;;;;;;5176286;27;20372;-67
2023/09/25 02:19:36;;;;;;;0.50;0.50;;;13.10;60.70;;;;;;5176463;27;20026;-66
2023/09/25 02:22:06;;;;;;;0.50;0.50;;;13.10;60.70;;;;;;5175861;27;20026;-67
2023/09/25 02:24:33;;;;;;;0.40;0.40;;;13.00;60.70;;;;;;5175042;27;20078;-67
2023/09/25 02:26:58;;;;;;;0.50;0.50;;;13.00;60.80;;;;;;5174830;27;20018;-67
2023/09/25 02:29:24;;;;;;;0.50;0.50;;;13.00;60.70;;;;;;5176195;27;20033;-67
2023/09/25 02:31:50;;;;;;;0.43;0.43;;;13.00;60.70;;;;;;5176015;27;20015;-67
2023/09/25 02:34:16;;;;;;;0.40;0.40;;;13.00;60.70;;;;;;5176242;27;20045;-67
2023/09/25 02:36:42;;;;;;;0.43;0.43;;;13.00;60.80;;;;;;5175842;27;20030;-67
2023/09/25 02:39:09;;;;;;;0.50;0.50;;;13.00;60.90;;;;;;5176031;27;20061;-67
2023/09/25 02:41:35;;;;;;;0.38;0.38;;;13.00;60.90;;;;;;5175743;27;20090;-67
2023/09/25 02:44:01;;;;;;;0.40;0.40;;;12.90;61.10;;;;;;5176069;27;20152;-67
2023/09/25 02:46:26;;;;;;;0.40;0.40;;;13.00;61.40;;;;;;5175562;27;20057;-67
2023/09/25 02:48:52;;;;;;;0.60;0.60;;;13.00;61.60;;;;;;5176155;27;20029;-67
2023/09/25 02:51:17;;;;;;;0.93;0.93;;;13.00;61.70;;;;;;5175627;27;20075;-67
2023/09/25 02:53:43;;;;;;;0.40;0.40;;;12.90;61.70;;;;;;5175921;27;20084;-66
2023/09/25 02:56:08;;;;;;;0.40;0.40;;;12.90;61.60;;;;;;5175354;27;20030;-67
2023/09/25 02:58:34;;;;;;;0.50;0.50;;;12.90;61.90;;;;;;5175643;27;20072;-67
2023/09/25 03:01:00;;;;;;;0.50;0.50;;;12.90;62.20;;;;;;5175217;27;20039;-67
2023/09/25 03:03:27;;;;;;;0.40;0.40;;;13.00;62.20;;;;;;5175736;27;20058;-68
2023/09/25 03:05:53;;;;;;;0.40;0.40;;;13.00;62.50;;;;;;5175593;27;20067;-68
2023/09/25 03:08:19;;;;;;;0.40;0.40;;;13.00;63.00;;;;;;5175781;27;20061;-68
2023/09/25 03:10:44;;;;;;;0.77;0.77;;;13.10;63.40;;;;;;5175248;27;20033;-68
2023/09/25 03:13:10;;;;;;;0.40;0.40;;;13.20;63.40;;;;;;5175265;27;20030;-68
2023/09/25 03:15:35;;;;;;;0.70;0.70;;;13.20;63.40;;;;;;5173704;27;20037;-68
2023/09/25 03:18:01;;;;;;;0.43;0.43;;;13.20;63.30;;;;;;5175282;27;20034;-68
2023/09/25 03:20:26;;;;;;;0.90;0.90;;;13.30;63.00;;;;;;5175248;27;20030;-68
2023/09/25 03:22:54;;;;;;;0.50;0.50;;;13.30;63.00;;;;;;5175091;27;20093;-68
2023/09/25 03:25:20;;;;;;;0.43;0.43;;;13.30;62.80;;;;;;5173911;27;20074;-68
2023/09/25 03:27:46;;;;;;;0.50;0.50;;;13.30;62.70;;;;;;5174269;27;20034;-68
2023/09/25 03:30:13;;;;;;;0.60;0.60;;;13.30;62.60;;;;;;5174442;27;20428;-68
2023/09/25 03:32:38;;;;;;;0.82;0.82;;;13.20;62.70;;;;;;5174008;27;20105;-68
2023/09/25 03:35:04;;;;;;;0.40;0.40;;;13.30;62.60;;;;;;5174040;27;20097;-68
2023/09/25 03:37:30;;;;;;;0.40;0.40;;;13.20;62.80;;;;;;5164895;27;20035;-69
2023/09/25 03:39:56;;;;;;;0.65;0.65;;;13.20;62.90;;;;;;5173872;27;20029;-68
2023/09/25 03:42:21;;;;;;;0.45;0.45;;;13.20;63.00;;;;;;5174288;27;20114;-68
2023/09/25 03:44:47;;;;;;;0.40;0.40;;;13.20;63.10;;;;;;5174477;27;20022;-67
2023/09/25 03:47:13;;;;;;;0.40;0.40;;;13.20;63.20;;;;;;5174313;27;20030;-67
2023/09/25 03:49:39;;;;;;;0.40;0.40;;;13.20;63.00;;;;;;5173084;27;20394;-67
2023/09/25 03:52:05;;;;;;;0.50;0.50;;;13.10;62.90;;;;;;5174686;27;20082;-67
2023/09/25 03:54:31;;;;;;;0.50;0.50;;;13.20;62.80;;;;;;5174721;27;20034;-67
2023/09/25 03:56:56;;;;;;;0.40;0.40;;;13.10;62.90;;;;;;5174306;27;20025;-67
2023/09/25 03:59:22;;;;;;;0.40;0.40;;;13.10;62.90;;;;;;5174281;27;20034;-67
2023/09/25 04:01:48;;;;;;;0.40;0.40;;;13.00;62.90;;;;;;5174587;27;20037;-67
2023/09/25 04:04:13;;;;;;;0.45;0.45;;;13.00;63.00;;;;;;5174491;27;20033;-67
2023/09/25 04:06:39;;;;;;;0.40;0.40;;;13.00;63.30;;;;;;5174418;27;20110;-67
2023/09/25 04:09:07;;;;;;;0.50;0.50;;;13.00;63.70;;;;;;5174605;27;20494;-68
2023/09/25 04:11:33;;;;;;;0.70;0.70;;;13.10;63.90;;;;;;5174388;27;20498;-67
2023/09/25 04:14:00;;;;;;;0.50;0.50;;;13.10;64.10;;;;;;5174718;27;20507;-67
2023/09/25 04:16:28;;;;;;;0.45;0.45;;;13.20;64.30;;;;;;5174059;27;20059;-67
2023/09/25 04:18:53;;;;;;;0.50;0.50;;;13.20;64.40;;;;;;5174480;27;20053;-68
2023/09/25 04:21:19;;;;;;;0.35;0.35;;;13.30;64.30;;;;;;5174344;27;20066;-67
2023/09/25 04:23:45;;;;;;;0.40;0.40;;;13.30;64.50;;;;;;5174506;27;20145;-68
2023/09/25 04:26:11;;;;;;;0.50;0.50;;;13.30;64.50;;;;;;5173886;27;20443;-68
2023/09/25 04:28:38;;;;;;;0.40;0.40;;;13.40;64.60;;;;;;5174551;27;20117;-68
2023/09/25 04:31:04;;;;;;;0.40;0.40;;;13.40;64.50;;;;;;5174378;27;20395;-68
2023/09/25 04:33:32;;;;;;;0.40;0.40;;;13.40;64.50;;;;;;5174239;27;20522;-68
2023/09/25 04:36:01;;;;;;;0.47;0.47;;;13.40;64.60;;;;;;5173766;27;20479;-67
2023/09/25 04:38:32;;;;;;;0.90;0.57;;;13.40;64.60;;;;;;5154788;27;20018;-67
2023/09/25 04:40:57;;;;;;;;;;;13.50;64.50;;;;;;5153439;27;20390;-68
2023/09/25 04:43:23;;;;;;;0.50;0.50;;;13.40;64.40;;;;;;5153266;27;19983;-67
2023/09/25 04:45:52;;;;;;;0.50;0.50;;;13.40;64.10;;;;;;5159630;27;20022;-68
2023/09/25 04:48:21;;;;;;;0.43;0.43;;;13.40;64.10;;;;;;5174795;27;20086;-67
2023/09/25 04:50:47;;;;;;;0.40;0.40;;;13.30;64.10;;;;;;5178051;27;20413;-67
2023/09/25 04:53:13;;;;;;;0.38;0.38;;;13.30;64.30;;;;;;5178325;27;20022;-68
2023/09/25 04:55:39;;;;;;;0.40;0.40;;;13.30;64.30;;;;;;5178451;27;20027;-68
2023/09/25 04:58:05;;;;;;;0.43;0.43;;;13.30;64.30;;;;;;5177729;27;20057;-68
2023/09/25 05:00:32;;;;;;;0.50;0.50;;;13.30;64.20;;;;;;5177382;27;20106;-69
2023/09/25 05:02:58;;;;;;;0.40;0.40;;;13.30;64.30;;;;;;5177807;27;20029;-68
2023/09/25 05:05:28;;;;;;;0.40;0.40;;;13.30;64.40;;;;;;5155884;27;20027;-67
2023/09/25 05:07:55;;;;;;;0.50;0.50;;;13.30;64.30;;;;;;5169495;27;20067;-68
2023/09/25 05:10:22;;;;;;;0.40;0.40;;;13.30;64.30;;;;;;5177493;27;20467;-68
2023/09/25 05:12:48;;;;;;;0.40;0.40;;;13.30;64.20;;;;;;5176633;27;20458;-68
2023/09/25 05:15:15;;;;;;;0.50;0.50;;;13.30;64.10;;;;;;5159937;27;20066;-68
2023/09/25 05:17:41;;;;;;;0.40;0.40;;;13.30;64.10;;;;;;5156983;27;20464;-68
2023/09/25 05:20:15;;;;;;;0.40;0.40;;;13.30;64.10;;;;;;5156415;27;20029;-68
2023/09/25 05:22:43;;;;;;;0.40;0.40;;;13.30;64.00;;;;;;5162748;27;20113;-68
2023/09/25 05:25:10;;;;;;;0.30;0.30;;;13.30;64.00;;;;;;5177237;27;20036;-69
2023/09/25 05:27:37;;;;;;;0.60;0.60;;;13.20;64.10;;;;;;5177147;27;20038;-68
2023/09/25 05:30:10;;;;;;;0.43;0.43;;;13.30;64.80;;;;;;5176977;27;20018;-68
2023/09/25 05:32:41;;;;;;;0.40;0.40;;;13.50;65.80;;;;;;5175859;27;20051;-69
2023/09/25 05:35:08;;;;;;;0.50;0.50;;;13.80;66.50;;;;;;5177000;27;20018;-69
2023/09/25 05:37:33;;;;;;;0.50;0.50;;;14.00;66.70;;;;;;5165091;27;20149;-69
2023/09/25 05:40:00;;;;;;;0.40;0.40;;;14.30;66.60;;;;;;5174095;27;20439;-70
2023/09/25 05:42:25;;;;;;;0.40;0.40;;;14.40;66.50;;;;;;5155499;27;20042;-69
2023/09/25 05:44:51;;;;;;;0.57;0.57;;;14.60;66.80;;;;;;5155734;27;20019;-69
2023/09/25 05:47:17;;;;;;;0.50;0.50;;;14.80;66.90;;;;;;5175173;27;20386;-69
2023/09/25 05:49:43;;;;;;;0.40;0.40;;;15.20;67.30;;;;;;5174326;27;20028;-69
2023/09/25 05:52:09;;;;;;;0.40;0.40;;;15.50;67.80;;;;;;5157284;27;20038;-69
2023/09/25 05:54:34;;;;;;;0.40;0.40;;;16.10;68.20;;;;;;5155009;27;20030;-69
2023/09/25 05:57:00;;;;;;;0.80;0.80;;;16.40;68.20;;;;;;5155449;27;20072;-69
2023/09/25 05:59:26;;;;;;;0.40;0.40;;;16.80;68.00;;;;;;5162257;27;20559;-70
2023/09/25 06:01:51;;;;;;;0.50;0.50;;;17.20;67.80;;;;;;5165151;27;20058;-69
2023/09/25 06:04:17;;;;;;;0.40;0.40;;;17.50;67.00;;;;;;5175008;27;20025;-70
2023/09/25 06:06:43;;;;;;;0.40;0.40;;;17.80;66.70;;;;;;5165887;27;20802;-69
2023/09/25 06:09:12;;;;;;;1.50;0.98;;;18.00;66.50;;;;;;5172423;27;20041;-69
2023/09/25 06:11:39;;;;;;;0.73;0.57;;;18.20;66.20;;;;;;5174688;27;20022;-69
2023/09/25 06:14:05;;;;;;;0.50;0.50;;;18.50;66.10;;;;;;5176118;27;20070;-69
2023/09/25 06:16:30;;;;;;;0.57;0.57;;;18.70;66.50;;;;;;5163579;27;20050;-69
2023/09/25 06:18:56;;;;;;;0.75;0.75;;;19.10;66.80;;;;;;5169678;27;20057;-70
2023/09/25 06:21:21;;;;;;;0.50;0.50;;;19.40;67.10;;;;;;5175240;27;20037;-69
2023/09/25 06:23:48;;;;;;;0.50;0.50;;;19.80;67.40;;;;;;5174811;27;20177;-69
2023/09/25 06:26:14;;;;;;;0.43;0.43;;;20.30;67.20;;;;;;5173591;27;20336;-70
2023/09/25 06:28:42;;;;;;;0.40;0.40;;;20.70;66.50;;;;;;5168733;27;20121;-69
2023/09/25 06:31:08;;;;;;;0.40;0.40;;;21.00;65.60;;;;;;5174595;27;20037;-68
2023/09/25 06:33:34;;;;;;;0.40;0.40;;;21.30;65.30;;;;;;5176169;27;20030;-67
2023/09/25 06:35:59;;;;;;;0.40;0.40;;;21.60;65.40;;;;;;5174851;27;20030;-68
2023/09/25 06:38:25;;;;;;;0.55;0.55;;;22.00;65.00;;;;;;5168831;27;20030;-68
2023/09/25 06:40:51;;;;;;;0.40;0.40;;;22.20;64.80;;;;;;5166587;27;20031;-67
2023/09/25 06:43:16;;;;;;;0.50;0.50;;;22.60;64.20;;;;;;5154123;27;20384;-68
2023/09/25 06:45:43;;;;;;;0.40;0.40;;;22.90;63.90;;;;;;5172696;27;20029;-68
2023/09/25 06:48:08;;;;;;;0.50;0.50;;;23.20;63.20;;;;;;5173007;27;20026;-67
2023/09/25 06:50:35;;;;;;;0.52;0.52;;;23.50;62.60;;;;;;5163520;27;20360;-68
2023/09/25 06:53:02;;;;;;;0.60;0.60;;;23.80;62.50;;;;;;5158287;27;20030;-68
2023/09/25 06:55:27;;;;;;;0.50;0.50;;;24.10;61.00;;;;;;5173537;27;20097;-66
2023/09/25 06:57:53;;;;;;;0.45;0.45;;;24.20;60.50;;;;;;5173693;27;20443;-68
2023/09/25 07:00:19;;;;;;;0.50;0.50;;;24.50;61.00;;;;;;5175158;27;20049;-67
2023/09/25 07:02:45;;;;;;;0.50;0.50;;;24.80;60.20;;;;;;5173428;27;20052;-69
2023/09/25 07:05:11;;;;;;;0.73;0.73;;;25.00;60.20;;;;;;5164692;27;20019;-68
2023/09/25 07:07:37;;;;;;;0.60;0.60;;;25.50;61.40;;;;;;5171329;27;20056;-68
2023/09/25 07:10:06;;;;;;;0.40;0.40;;;25.80;60.60;;;;;;5175332;27;20054;-69
2023/09/25 07:12:35;;;;;;;2.65;1.10;;;26.40;60.60;;;;;;5174074;27;20056;-69
2023/09/25 07:15:02;;;;;;;0.30;0.30;;;26.80;59.20;;;;;;5173120;27;20105;-68
2023/09/25 07:17:29;;;;;;;0.38;0.38;;;27.10;58.60;;;;;;5175194;27;20592;-68
2023/09/25 07:19:55;;;;;;;0.63;0.63;;;27.30;57.90;;;;;;5169526;27;20455;-68
2023/09/25 07:22:22;;;;;;;0.38;0.38;;;27.70;57.30;;;;;;5168471;27;20506;-68
2023/09/25 07:24:48;;;;;;;0.50;0.50;;;27.80;57.10;;;;;;5170982;27;20376;-68
2023/09/25 07:27:15;;;;;;;1.25;1.15;;;28.00;56.00;;;;;;5171668;27;20029;-68
2023/09/25 07:29:47;;;;;;;0.40;0.40;;;28.20;54.40;;;;;;5167041;27;20089;-69
2023/09/25 07:32:14;;;;;;;0.47;0.47;;;28.20;52.90;;;;;;5154043;27;20035;-68
2023/09/25 07:34:40;;;;;;;0.47;0.47;;;28.30;52.40;;;;;;5173714;27;20490;-69
2023/09/25 07:37:07;;;;;;;0.47;0.43;;;28.40;51.00;;;;;;5173067;27;20037;-67
2023/09/25 07:39:34;;;;;;;0.60;0.60;;;28.40;50.20;;;;;;5168841;27;20123;-68
2023/09/25 07:42:00;;;;;;;0.50;0.50;;;28.50;50.10;;;;;;5158211;27;20014;-68
2023/09/25 07:44:26;;;;;;;0.40;0.40;;;28.60;48.60;;;;;;5171400;27;20026;-67
2023/09/25 07:46:53;;;;;;;0.43;0.43;;;28.60;47.80;;;;;;5173880;27;20022;-68
2023/09/25 07:49:20;;;;;;;0.40;0.40;;;28.50;46.20;;;;;;5165158;27;20044;-67
2023/09/25 07:51:46;;;;;;;1.13;1.00;;;28.50;46.30;;;;;;5154507;27;20038;-68
2023/09/25 07:54:12;;;;;;;0.40;0.40;;;28.60;47.20;;;;;;5167955;27;20030;-68
2023/09/25 07:56:38;;;;;;;0.40;0.40;;;28.80;47.10;;;;;;5172779;27;20572;-68
2023/09/25 07:59:03;;;;;;;0.40;0.40;;;28.90;45.90;;;;;;5169850;27;20062;-67
2023/09/25 08:01:29;;;;;;;0.57;0.57;;;29.00;44.50;;;;;;5170464;27;20479;-67
2023/09/25 08:03:56;;;;;;;0.38;0.38;;;29.10;44.80;;;;;;5174035;27;20110;-68
2023/09/25 08:06:24;;;;;;;0.30;0.30;;;29.30;45.20;;;;;;5163966;27;20043;-68
2023/09/25 08:08:50;;;;;;;0.60;0.55;;;29.60;44.40;;;;;;5165429;27;20488;-68
2023/09/25 08:11:17;;;;;;;0.40;0.40;;;29.80;43.50;;;;;;5158638;27;20061;-69
2023/09/25 08:13:42;;;;;;;0.38;0.38;;;30.10;42.00;;;;;;5165781;27;20031;-68
2023/09/25 08:16:08;;;;;;;0.52;0.52;;;30.20;41.00;;;;;;5165988;27;20624;-67
2023/09/25 08:18:34;;;;;;;0.40;0.40;;;30.30;39.60;;;;;;5168349;27;20050;-68
2023/09/25 08:21:00;;;;;;;0.50;0.50;;;30.40;39.80;;;;;;5170749;27;20545;-67
2023/09/25 08:23:26;;;;;;;0.50;0.50;;;30.40;38.80;;;;;;5172055;27;20034;-67
2023/09/25 08:25:53;;;;;;;0.50;0.50;;;30.40;38.40;;;;;;5173108;27;20028;-68
2023/09/25 08:28:19;;;;;;;0.45;0.45;;;30.60;38.40;;;;;;5171996;27;20014;-69
2023/09/25 08:30:44;;;;;;;0.40;0.40;;;30.60;38.10;;;;;;5168032;27;20033;-69
2023/09/25 08:33:11;;;;;;;0.40;0.40;;;30.70;37.70;;;;;;5166094;27;20061;-68
2023/09/25 08:35:36;;;;;;;0.40;0.40;;;30.70;36.40;;;;;;5171935;27;20037;-68
2023/09/25 08:38:02;;;;;;;0.50;0.50;;;30.70;35.90;;;;;;5165099;27;20022;-68
2023/09/25 08:40:31;;;;;;;0.57;0.57;;;30.80;36.20;;;;;;5159502;27;20029;-69
2023/09/25 08:42:57;;;;;;;0.50;0.50;;;30.90;36.10;;;;;;5156854;27;20026;-68
2023/09/25 08:45:23;;;;;;;0.50;0.50;;;31.10;35.50;;;;;;5173382;27;20027;-69
2023/09/25 08:47:49;;;;;;;0.57;0.57;;;31.20;35.60;;;;;;5173463;27;20026;-69
2023/09/25 08:50:14;;;;;;;0.40;0.40;;;31.40;34.80;;;;;;5161549;27;20027;-69
2023/09/25 08:52:41;;;;;;;0.40;0.40;;;31.60;34.90;;;;;;5161450;27;20367;-69
2023/09/25 08:55:08;;;;;;;0.50;0.50;;;31.80;34.50;;;;;;5171740;27;20117;-69
2023/09/25 08:57:35;;;;;;;0.30;0.30;;;31.90;34.30;;;;;;5173316;27;20390;-70
2023/09/25 09:00:11;;;;;;;0.75;0.75;;;32.10;34.00;;;;;;5163518;27;20029;-70
2023/09/25 09:02:40;;;;;;;0.80;0.80;;;32.30;33.90;;;;;;5152429;27;20106;-69
2023/09/25 09:05:13;;;;;;;0.40;0.40;;;32.60;33.80;;;;;;5163682;27;20074;-69
2023/09/25 09:07:54;;;;;;;0.50;0.50;;;32.90;33.10;;;;;;5166575;27;20109;-69
2023/09/25 09:10:19;;;;;;;0.45;0.45;;;33.10;32.10;;;;;;5160618;27;20031;-69
2023/09/25 09:12:54;;;;;;;0.50;0.50;;;33.20;31.00;;;;;;5170350;27;20060;-70
2023/09/25 09:15:28;;;;;;;0.60;0.60;;;33.30;30.80;;;;;;5169783;27;20067;-70
2023/09/25 09:17:56;;;;;;;0.40;0.40;;;33.30;30.60;;;;;;5172521;27;20029;-68
2023/09/25 09:20:34;;;;;;;0.70;0.70;;;33.40;29.90;;;;;;5166910;27;20030;-67
2023/09/25 09:23:00;;;;;;;0.68;0.68;;;33.30;29.10;;;;;;5171855;27;20018;-69
2023/09/25 09:25:27;;;;;;;0.60;0.60;;;33.20;29.20;;;;;;5165559;27;20026;-68
2023/09/25 09:27:52;;;;;;;0.60;0.60;;;33.20;29.50;;;;;;5151756;27;20027;-68
2023/09/25 09:30:23;;;;;;;0.60;0.60;;;33.30;29.00;;;;;;5157871;27;20042;-68
2023/09/25 09:32:52;;;;;;;0.50;0.50;;;33.20;29.10;;;;;;5172587;27;20562;-69
2023/09/25 09:35:25;;;;;;;0.40;0.40;;;33.20;28.60;;;;;;5172519;27;20030;-68
2023/09/25 09:37:54;;;;;;;0.65;0.65;;;33.10;28.50;;;;;;5171859;27;20094;-68
2023/09/25 09:40:24;;;;;;;0.45;0.45;;;33.00;29.00;;;;;;5166294;27;20464;-70
2023/09/25 09:42:53;;;;;;;0.50;0.50;;;33.10;29.40;;;;;;5176220;27;20029;-69
2023/09/25 09:45:20;;;;;;;0.50;0.50;;;33.20;29.00;;;;;;5176409;27;20033;-68
2023/09/25 09:47:49;;;;;;;0.40;0.40;;;33.30;28.60;;;;;;5175351;27;20028;-68
2023/09/25 09:50:21;;;;;;;0.50;0.50;;;33.30;27.50;;;;;;5165590;27;20030;-68
2023/09/25 09:52:47;;;;;;;0.50;0.50;;;33.20;27.50;;;;;;5166546;27;20402;-68
2023/09/25 09:55:14;;;;;;;0.50;0.50;;;33.20;27.60;;;;;;5175210;27;20022;-67
2023/09/25 09:57:40;;;;;;;1.27;1.02;;;33.30;27.70;;;;;;5176498;27;20407;-68
2023/09/25 10:00:07;;;;;;;0.63;0.63;;;33.40;27.70;;;;;;5164746;27;20023;-68
2023/09/25 10:02:34;;;;;;;0.50;0.50;;;33.60;27.30;;;;;;5166354;27;20066;-68
2023/09/25 10:05:00;;;;;;;0.63;0.63;;;33.70;26.40;;;;;;5175695;27;20022;-68
2023/09/25 10:07:27;;;;;;;0.50;0.50;;;33.70;26.30;;;;;;5176309;27;20480;-67
2023/09/25 10:10:21;;;;;;;0.50;0.50;;;33.80;26.60;;;;;;5166192;27;20470;-68
2023/09/25 10:12:48;;;;;;;0.60;0.60;;;34.00;26.40;;;;;;5150278;27;20034;-68
2023/09/25 10:15:23;;;;;;;0.50;0.50;;;34.10;26.20;;;;;;5161612;27;20038;-68
2023/09/25 10:17:49;;;;;;;0.60;0.60;;;34.20;25.90;;;;;;5175450;27;20022;-68
2023/09/25 10:20:30;;;;;;;0.50;0.50;;;34.30;26.10;;;;;;5163870;27;20376;-67
2023/09/25 10:23:19;;;;;;;0.60;0.60;;;34.50;25.60;;;;;;5154827;27;20496;-67
2023/09/25 10:25:48;;;;;;;0.50;0.50;;;34.60;25.10;;;;;;5170516;27;20367;-68
2023/09/25 10:28:23;;;;;;;0.50;0.50;;;34.50;25.00;;;;;;5176434;27;20078;-69
2023/09/25 10:30:50;;;;;;;0.50;0.50;;;34.50;25.10;;;;;;5164080;27;20031;-69
2023/09/25 10:33:19;;;;;;;0.47;0.47;;;34.30;24.20;;;;;;5161756;27;20475;-69
2023/09/25 10:35:50;;;;;;;0.47;0.47;;;34.00;24.00;;;;;;5169208;27;20083;-70
2023/09/25 10:38:28;;;;;;;0.40;0.40;;;33.80;24.20;;;;;;5165117;27;20034;-69
2023/09/25 10:40:55;;;;;;;0.50;0.50;;;33.40;24.20;;;;;;5171105;27;20031;-69
2023/09/25 10:43:22;;;;;;;0.60;0.60;;;33.20;24.70;;;;;;5182621;27;20014;-70
2023/09/25 10:45:49;;;;;;;0.40;0.40;;;33.10;24.90;;;;;;5178487;27;20379;-70
2023/09/25 10:48:15;;;;;;;0.68;0.68;;;33.00;25.10;;;;;;5180295;27;20487;-70
2023/09/25 10:50:43;;;;;;;0.57;0.57;;;32.80;24.80;;;;;;5166039;27;20446;-70
2023/09/25 10:53:13;;;;;;;0.90;0.63;;;32.50;25.00;;;;;;5179698;27;20026;-70
2023/09/25 10:55:38;;;;;;;0.63;0.63;;;32.50;25.30;;;;;;5181315;27;20030;-70
2023/09/25 10:58:06;;;;;;;0.47;0.47;;;32.60;25.60;;;;;;5183377;27;20107;-70
2023/09/25 11:00:33;;;;;;;0.65;0.65;;;32.60;25.50;;;;;;5167753;27;20079;-70
2023/09/25 11:02:59;;;;;;;0.70;0.70;;;32.60;25.10;;;;;;5178615;27;20022;-70
2023/09/25 11:05:25;;;;;;;0.40;0.40;;;32.60;24.80;;;;;;5174350;27;20034;-70
2023/09/25 11:07:51;;;;;;;0.40;0.40;;;32.60;25.20;;;;;;5168199;27;20498;-70
2023/09/25 11:10:17;;;;;;;2.90;0.57;;;32.70;25.50;;;;;;5168803;27;20043;-70
2023/09/25 11:12:47;;;;;;;0.50;0.50;;;32.80;25.40;;;;;;5167640;27;20014;-70
2023/09/25 11:15:19;;;;;;;0.40;0.40;;;32.80;24.40;;;;;;5177905;27;20144;-70
2023/09/25 11:17:46;;;;;;;0.40;0.40;;;32.70;24.50;;;;;;5179147;27;20065;-70
2023/09/25 11:20:19;;;;;;;0.43;0.43;;;32.50;24.70;;;;;;5167333;27;20039;-70
2023/09/25 11:22:48;;;;;;;2.10;0.88;;;32.40;25.10;;;;;;5163741;27;20041;-69
2023/09/25 11:25:15;;;;;;;0.50;0.50;;;32.50;25.20;;;;;;5173267;27;20058;-70
2023/09/25 11:27:52;;;;;;;0.40;0.40;;;32.40;25.10;;;;;;5164753;27;20062;-70
2023/09/25 11:30:18;;;;;;;0.40;0.40;;;32.20;25.10;;;;;;5168413;27;20027;-70
2023/09/25 11:32:43;;;;;;;0.50;0.50;;;31.90;25.80;;;;;;5178061;27;20014;-70
2023/09/25 11:35:12;;;;;;;0.40;0.40;;;31.80;25.70;;;;;;5178046;27;20090;-70
2023/09/25 11:38:11;;;;;;;0.50;0.50;;;31.70;26.10;;;;;;5163645;27;20090;-68
2023/09/25 11:40:38;;;;;;;0.77;0.77;;;31.60;26.40;;;;;;5166795;27;20474;-68
2023/09/25 11:43:03;;;;;;;0.40;0.40;;;31.60;26.40;;;;;;5171561;27;20018;-68
2023/09/25 11:45:30;;;;;;;0.50;0.50;;;31.60;26.40;;;;;;5173807;27;20030;-68
2023/09/25 11:47:56;;;;;;;0.45;0.45;;;31.60;26.00;;;;;;5172935;27;20565;-68
2023/09/25 11:50:21;;;;;;;0.50;0.50;;;31.50;26.20;;;;;;5167243;27;20117;-68
2023/09/25 11:52:47;;;;;;;0.50;0.50;;;31.50;26.30;;;;;;5174061;27;20136;-68
2023/09/25 11:55:14;;;;;;;0.55;0.55;;;31.50;26.60;;;;;;5173176;27;20129;-67
2023/09/25 11:57:42;;;;;;;0.43;0.43;;;31.40;26.70;;;;;;5170406;27;20022;-66
2023/09/25 12:00:16;;;;;;;0.60;0.60;;;31.40;27.10;;;;;;5163301;27;20027;-66
2023/09/25 12:02:46;;;;;;;0.40;0.40;;;31.40;27.30;;;;;;5171451;27;20607;-67
2023/09/25 12:05:12;;;;;;;0.40;0.40;;;31.40;27.00;;;;;;5169633;27;20394;-68
2023/09/25 12:07:38;;;;;;;0.45;0.45;;;31.40;26.90;;;;;;5169556;27;20050;-67
2023/09/25 12:10:08;;;;;;;0.73;0.68;;;31.30;26.80;;;;;;5161310;27;20065;-67
2023/09/25 12:12:38;;;;;;;1.15;1.00;;;31.30;27.10;;;;;;5153092;27;20468;-67
2023/09/25 12:15:08;;;;;;;0.50;0.50;;;31.20;26.90;;;;;;5152674;27;20506;-67
2023/09/25 12:17:35;;;;;;;0.93;0.90;;;31.20;26.80;;;;;;5173107;27;20026;-68
2023/09/25 12:20:06;;;;;;;0.55;0.55;;;31.10;26.90;;;;;;5163934;27;20231;-67
2023/09/25 12:22:33;;;;;;;0.50;0.50;;;30.90;27.00;;;;;;5165252;27;20026;-67
2023/09/25 12:24:58;;;;;;;0.73;0.73;;;30.80;26.70;;;;;;5173436;27;20471;-67
2023/09/25 12:27:24;;;;;;;0.40;0.40;;;30.50;26.80;;;;;;5171452;27;20067;-69
2023/09/25 12:29:50;;;;;;;0.70;0.70;;;30.40;27.20;;;;;;5166978;27;20034;-68
2023/09/25 12:32:15;;;;;;;0.40;0.40;;;30.30;27.00;;;;;;5171692;27;20149;-67
2023/09/25 12:34:41;;;;;;;0.60;0.60;;;30.10;27.10;;;;;;5172648;27;20109;-68
2023/09/25 12:37:07;;;;;;;0.50;0.50;;;30.00;27.40;;;;;;5152300;27;20117;-68
2023/09/25 12:39:34;;;;;;;0.40;0.40;;;29.90;27.80;;;;;;5168226;27;20088;-67
2023/09/25 12:42:00;;;;;;;0.50;0.50;;;29.90;28.00;;;;;;5169845;27;20121;-67
2023/09/25 12:44:25;;;;;;;0.40;0.40;;;30.10;28.30;;;;;;5171244;27;20105;-69
2023/09/25 12:46:52;;;;;;;0.90;0.90;;;30.10;28.20;;;;;;5170620;27;20517;-68